Time;durP1;ratioP1;P1;durP2;ratioP2;P2;SDS_P1;SDS_P2;PMS_P1;PMS_P2;Temp;Humidity;BMP_temperature;BMP_pressure;BME280_temperature;BME280_humidity;BME280_pressure;Samples;Min_cycle;Max_cycle;Signal;HPM_P1;HPM_P2
2022/09/24 00:01:32;;;;;;;41.37;15.68;;;;;;;9.08;100.00;98936.38;4424972;32;20064;-70
2022/09/24 00:04:06;;;;;;;44.13;14.63;;;;;;;9.51;100.00;98965.53;4415579;32;20302;-69
2022/09/24 00:06:37;;;;;;;30.85;14.38;;;;;;;9.79;100.00;98957.37;4415656;32;20060;-68
2022/09/24 00:09:04;;;;;;;29.63;14.07;;;;;;;10.09;100.00;98976.91;4414454;32;20047;-72
2022/09/24 00:11:30;;;;;;;33.75;14.15;;;;;;;10.07;100.00;98961.00;4413031;32;20153;-71
2022/09/24 00:13:58;;;;;;;32.10;14.57;;;;;;;9.98;100.00;98959.81;4411222;32;20058;-71
2022/09/24 00:16:27;;;;;;;32.83;15.00;;;;;;;9.99;100.00;98972.19;4403307;32;20026;-69
2022/09/24 00:18:54;;;;;;;36.90;14.27;;;;;;;9.93;100.00;98957.03;4384196;32;20373;-67
2022/09/24 00:21:23;;;;;;;37.90;14.87;;;;;;;9.87;100.00;98952.66;4350999;32;20168;-73
2022/09/24 00:24:01;;;;;;;31.30;14.43;;;;;;;9.67;100.00;98907.44;4353666;32;20085;-68
2022/09/24 00:29:34;;;;;;;33.88;13.55;;;;;;;9.77;100.00;98939.88;4310130;33;20044;-69
2022/09/24 00:32:02;;;;;;;30.52;13.20;;;;;;;9.54;100.00;98908.59;4319188;33;20032;-72
2022/09/24 00:34:28;;;;;;;28.05;14.05;;;;;;;9.63;100.00;98893.69;4326742;33;20032;-72
2022/09/24 00:36:54;;;;;;;35.92;14.57;;;;;;;9.99;100.00;98935.34;4332784;33;20061;-69
2022/09/24 00:39:21;;;;;;;32.63;15.13;;;;;;;9.94;100.00;98937.97;4340122;33;20028;-69
2022/09/24 00:41:47;;;;;;;29.17;13.10;;;;;;;9.96;100.00;98940.41;4339920;33;20079;-68
2022/09/24 00:44:39;;;;;;;25.23;12.82;;;;;;;10.01;100.00;98929.72;4330780;33;20036;-69
2022/09/24 00:47:27;;;;;;;22.33;10.52;;;;;;;9.71;100.00;98933.59;4329848;33;20070;-69
2022/09/24 00:50:01;;;;;;;37.20;13.88;;;;;;;9.87;100.00;98931.94;4335855;33;20074;-69
2022/09/24 00:52:28;;;;;;;25.92;12.10;;;;;;;10.03;100.00;98881.06;4353206;32;20097;-69
2022/09/24 00:54:54;;;;;;;24.80;12.20;;;;;;;9.92;100.00;98912.38;4366721;32;20054;-70
2022/09/24 00:57:22;;;;;;;24.63;12.05;;;;;;;9.92;100.00;98880.09;4380470;32;20112;-69
2022/09/24 00:59:49;;;;;;;31.92;12.75;;;;;;;10.23;100.00;98918.16;4385845;32;20054;-69
2022/09/24 01:02:15;;;;;;;30.25;12.88;;;;;;;10.31;100.00;98915.84;4397320;32;20035;-69
2022/09/24 01:04:41;;;;;;;23.42;11.40;;;;;;;10.08;100.00;98881.13;4406310;32;20043;-69
2022/09/24 01:07:08;;;;;;;24.05;11.43;;;;;;;10.00;100.00;98872.44;4432024;32;20045;-69
2022/09/24 01:09:34;;;;;;;26.77;10.52;;;;;;;9.99;100.00;98902.25;4430882;32;20021;-69
2022/09/24 01:12:39;;;;;;;22.77;9.90;;;;;;;10.16;100.00;98913.78;4417856;32;20612;-68
2022/09/24 01:15:18;;;;;;;29.52;10.60;;;;;;;10.28;100.00;98910.16;4424539;32;20050;-69
2022/09/24 01:18:06;;;;;;;20.48;8.85;;;;;;;10.03;100.00;98860.34;4427760;32;20042;-70
2022/09/24 01:20:39;;;;;;;19.48;9.63;;;;;;;10.26;100.00;98901.50;4422703;32;20065;-69
2022/09/24 01:23:55;;;;;;;19.55;8.98;;;;;;;10.29;100.00;98906.38;4424996;32;20390;-69
2022/09/24 01:26:56;;;;;;;18.85;9.07;;;;;;;10.30;100.00;98902.63;4415682;32;20463;-69
2022/09/24 01:29:36;;;;;;;13.88;9.15;;;;;;;10.45;100.00;98893.94;4427859;32;20034;-71
2022/09/24 01:32:08;;;;;;;16.67;9.20;;;;;;;10.68;100.00;98903.63;4414292;32;20064;-68
2022/09/24 01:34:51;;;;;;;21.98;9.50;;;;;;;10.39;100.00;98863.50;4413343;32;20022;-69
2022/09/24 01:37:22;;;;;;;20.00;9.85;;;;;;;10.68;100.00;98909.03;4421520;32;20046;-69
2022/09/24 01:39:52;;;;;;;26.92;10.45;;;;;;;10.61;100.00;98911.09;4426725;32;20125;-68
2022/09/24 01:42:22;;;;;;;22.08;10.48;;;;;;;10.21;100.00;98858.41;4412937;32;20082;-69
2022/09/24 01:44:49;;;;;;;19.05;10.15;;;;;;;10.23;100.00;98856.25;4397544;32;20031;-69
2022/09/24 01:47:22;;;;;;;28.10;9.90;;;;;;;10.19;100.00;98896.31;4399205;32;20044;-69
2022/09/24 01:49:52;;;;;;;18.95;10.13;;;;;;;10.13;100.00;98892.75;4396436;32;20072;-68
2022/09/24 01:52:25;;;;;;;23.80;9.48;;;;;;;10.15;100.00;98852.97;4408696;32;20026;-68
2022/09/24 01:54:55;;;;;;;21.70;10.43;;;;;;;10.36;100.00;98848.66;4412435;32;20064;-68
2022/09/24 01:57:31;;;;;;;19.80;10.57;;;;;;;10.68;100.00;98892.88;4413233;32;20022;-68
2022/09/24 02:00:04;;;;;;;21.15;10.40;;;;;;;10.54;100.00;98887.87;4410192;32;20050;-68
2022/09/24 02:02:44;;;;;;;20.48;10.00;;;;;;;10.64;100.00;98891.75;4409216;32;20333;-69
2022/09/24 02:05:18;;;;;;;20.55;9.95;;;;;;;10.31;100.00;98848.56;4408307;32;20035;-68
2022/09/24 02:07:56;;;;;;;19.00;9.73;;;;;;;10.34;100.00;98895.72;4396822;32;20076;-69
2022/09/24 02:10:22;;;;;;;20.88;9.85;;;;;;;10.31;100.00;98850.47;4398243;32;20529;-70
2022/09/24 02:13:01;;;;;;;21.55;11.85;;;;;;;10.54;100.00;98882.47;4398247;32;20056;-69
2022/09/24 02:15:31;;;;;;;;;;;;;;;10.72;100.00;98888.59;4391894;32;20137;-69
2022/09/24 02:18:02;;;;;;;18.73;9.32;;;;;;;10.75;100.00;98887.28;4392809;32;19973;-69
2022/09/24 02:20:30;;;;;;;16.42;9.05;;;;;;;10.42;100.00;98841.44;4396392;32;20113;-68
2022/09/24 02:22:56;;;;;;;16.67;9.68;;;;;;;10.53;100.00;98842.37;4351938;32;20039;-72
2022/09/24 02:25:30;;;;;;;15.90;9.25;;;;;;;10.51;100.00;98858.78;4352701;32;20065;-68
2022/09/24 02:27:57;;;;;;;21.17;10.00;;;;;;;10.39;100.00;98846.50;4364152;32;20078;-68
2022/09/24 02:30:36;;;;;;;17.62;8.88;;;;;;;10.54;100.00;98879.78;4366620;32;20069;-68
2022/09/24 02:34:19;;;;;;;18.80;9.90;;;;;;;10.14;100.00;98835.19;4343744;32;20058;-68
2022/09/24 02:35:53;;;;;;;18.50;9.65;;;;;;;10.35;100.00;98870.44;4337776;33;20040;-68
2022/09/24 02:38:21;;;;;;;17.65;9.80;;;;;;;10.38;100.00;98880.69;4336814;33;20035;-72
2022/09/24 02:40:49;;;;;;;19.60;9.90;;;;;;;10.04;100.00;98839.66;4337049;33;20141;-68
2022/09/24 02:43:15;;;;;;;16.95;9.70;;;;;;;10.16;100.00;98876.12;4338801;33;20345;-68
2022/09/24 02:45:42;;;;;;;18.58;9.98;;;;;;;9.78;100.00;98826.69;4336905;33;20570;-70
2022/09/24 02:48:08;;;;;;;17.95;9.15;;;;;;;10.25;100.00;98881.88;4338400;33;20052;-68
2022/09/24 02:50:34;;;;;;;23.08;9.63;;;;;;;10.47;100.00;98873.00;4336921;33;20495;-73
2022/09/24 02:53:01;;;;;;;17.45;9.35;;;;;;;10.22;100.00;98825.06;4338632;32;20402;-68
2022/09/24 02:55:27;;;;;;;21.05;9.30;;;;;;;10.46;100.00;98866.78;4366648;32;20437;-68
2022/09/24 02:57:53;;;;;;;21.40;9.57;;;;;;;10.24;100.00;98865.97;4368479;32;20439;-69
2022/09/24 03:00:27;;;;;;;15.57;9.00;;;;;;;9.70;100.00;98812.84;4366129;32;20047;-70
2022/09/24 03:02:53;;;;;;;13.23;7.47;;;;;;;10.18;100.00;98867.81;4353129;32;20057;-68
2022/09/24 03:05:20;;;;;;;16.50;8.13;;;;;;;9.92;100.00;98823.62;4337906;33;20066;-68
2022/09/24 03:07:47;;;;;;;20.75;8.68;;;;;;;10.23;100.00;98869.72;4338335;33;20198;-68
2022/09/24 03:10:13;;;;;;;19.25;7.97;;;;;;;10.59;100.00;98862.06;4337737;33;20401;-72
2022/09/24 03:12:41;;;;;;;19.27;8.80;;;;;;;10.56;100.00;98858.00;4336172;33;20054;-68
2022/09/24 03:15:08;;;;;;;15.35;8.45;;;;;;;10.46;100.00;98853.31;4338288;33;20052;-69
2022/09/24 03:17:34;;;;;;;18.60;10.30;;;;;;;10.39;100.00;98804.28;4340698;33;20130;-69
2022/09/24 03:20:01;;;;;;;16.23;7.90;;;;;;;10.69;100.00;98856.78;4340529;33;20062;-69
2022/09/24 03:22:27;;;;;;;14.68;8.23;;;;;;;10.03;100.00;98768.88;4340792;33;20090;-70
2022/09/24 03:27:32;;;;;;;23.05;9.00;;;;;;;10.57;100.00;98853.44;4355931;32;20390;-70
2022/09/24 03:32:44;;;;;;;19.73;8.70;;;;;;;9.99;100.00;98773.16;4370511;32;20053;-69
2022/09/24 03:35:10;;;;;;;19.20;8.77;;;;;;;10.54;100.00;98844.78;4370376;32;20027;-69
2022/09/24 03:37:37;;;;;;;18.48;8.23;;;;;;;10.52;100.00;98852.31;4401133;32;20366;-69
2022/09/24 03:40:06;;;;;;;20.83;9.27;;;;;;;10.47;100.00;98854.97;4403341;32;20080;-70
2022/09/24 03:42:33;;;;;;;17.75;8.15;;;;;;;10.30;100.00;98801.19;4412220;32;20022;-73
2022/09/24 03:44:59;;;;;;;17.65;8.18;;;;;;;10.09;100.00;98762.50;4414670;32;20072;-69
2022/09/24 03:47:26;;;;;;;15.15;7.53;;;;;;;10.25;100.00;98800.34;4415617;32;20176;-69
2022/09/24 03:49:53;;;;;;;12.35;8.15;;;;;;;9.91;100.00;98757.47;4370168;32;20036;-69
2022/09/24 03:52:19;;;;;;;14.52;7.55;;;;;;;10.20;100.00;98801.09;4355719;32;20036;-68
2022/09/24 03:54:45;;;;;;;16.30;8.10;;;;;;;10.35;100.00;98846.22;4367638;32;20124;-73
2022/09/24 03:57:13;;;;;;;13.98;6.90;;;;;;;9.96;100.00;98806.75;4390837;32;20165;-68
2022/09/24 03:59:41;;;;;;;13.05;7.78;;;;;;;10.32;100.00;98861.00;4384852;32;20412;-68
2022/09/24 04:02:09;;;;;;;19.80;7.95;;;;;;;10.33;100.00;98851.03;4398831;32;20074;-68
2022/09/24 04:04:42;;;;;;;10.85;7.28;;;;;;;10.12;100.00;98842.69;4398037;32;20048;-69
2022/09/24 04:07:08;;;;;;;15.27;7.62;;;;;;;10.28;100.00;98856.34;4384976;32;20112;-69
2022/09/24 04:09:35;;;;;;;10.65;7.35;;;;;;;10.09;100.00;98816.28;4384468;32;20470;-68
2022/09/24 04:12:01;;;;;;;13.27;6.62;;;;;;;10.39;100.00;98855.41;4375339;32;20470;-67
2022/09/24 04:14:28;;;;;;;14.82;7.12;;;;;;;10.10;100.00;98812.56;4365937;32;20132;-72
2022/09/24 04:16:54;;;;;;;10.85;6.62;;;;;;;10.15;100.00;98815.28;4368958;32;20382;-68
2022/09/24 04:19:20;;;;;;;13.27;6.60;;;;;;;10.37;100.00;98860.25;4369573;32;20406;-69
2022/09/24 04:21:47;;;;;;;12.05;7.32;;;;;;;10.44;100.00;98850.09;4369907;32;20357;-70
2022/09/24 04:24:14;;;;;;;10.77;6.55;;;;;;;10.35;100.00;98846.22;4370017;32;20053;-70
2022/09/24 04:26:40;;;;;;;11.75;6.45;;;;;;;10.07;100.00;98810.38;4373908;32;20096;-73
2022/09/24 04:29:12;;;;;;;12.10;6.28;;;;;;;10.37;100.00;98844.09;4398890;32;20771;-70
2022/09/24 04:31:39;;;;;;;10.25;6.35;;;;;;;10.49;100.00;98855.50;4399086;32;20064;-70
2022/09/24 04:34:05;;;;;;;11.05;6.22;;;;;;;10.15;100.00;98818.00;4399657;32;20040;-70
2022/09/24 04:36:32;;;;;;;11.02;7.20;;;;;;;10.24;100.00;98850.63;4366955;32;20184;-74
2022/09/24 04:38:58;;;;;;;10.05;6.45;;;;;;;10.10;100.00;98801.78;4380565;32;20112;-69
2022/09/24 04:41:24;;;;;;;10.98;6.75;;;;;;;10.39;100.00;98830.34;4384671;32;20474;-69
2022/09/24 04:43:51;;;;;;;14.82;6.40;;;;;;;10.45;100.00;98846.34;4384535;32;20423;-69
2022/09/24 04:46:18;;;;;;;12.20;6.05;;;;;;;10.37;100.00;98844.09;4395610;32;20673;-70
2022/09/24 04:48:44;;;;;;;12.25;6.43;;;;;;;10.38;100.00;98844.91;4395245;32;20048;-70
2022/09/24 04:51:10;;;;;;;11.73;7.10;;;;;;;10.32;100.00;98847.53;4399292;32;20092;-70
2022/09/24 04:53:37;;;;;;;12.52;7.10;;;;;;;9.97;100.00;98796.78;4399856;32;20069;-70
2022/09/24 04:56:04;;;;;;;13.80;7.07;;;;;;;10.25;100.00;98835.31;4397418;32;20023;-70
2022/09/24 04:58:31;;;;;;;29.73;7.53;;;;;;;10.13;100.00;98822.81;4399524;32;20064;-72
2022/09/24 05:01:02;;;;;;;13.35;6.72;;;;;;;9.45;100.00;98737.03;4396798;32;20534;-70
2022/09/24 05:03:29;;;;;;;15.97;7.53;;;;;;;10.20;100.00;98843.34;4398888;32;20068;-70
2022/09/24 05:05:55;;;;;;;18.95;8.10;;;;;;;9.84;100.00;98802.56;4386415;32;20134;-71
2022/09/24 05:08:22;;;;;;;19.05;7.07;;;;;;;9.96;100.00;98805.94;4397411;32;20388;-71
2022/09/24 05:10:48;;;;;;;15.77;7.45;;;;;;;10.23;100.00;98837.41;4394936;32;20510;-71
2022/09/24 05:13:14;;;;;;;11.45;7.32;;;;;;;10.13;100.00;98824.66;4404741;32;20772;-69
2022/09/24 05:15:41;;;;;;;13.05;6.57;;;;;;;10.00;100.00;98801.66;4416718;32;20034;-68
2022/09/24 05:18:07;;;;;;;11.57;6.28;;;;;;;9.63;100.00;98753.91;4423917;32;20053;-69
2022/09/24 05:20:33;;;;;;;9.82;6.97;;;;;;;10.02;100.00;98793.34;4425035;32;20056;-68
2022/09/24 05:23:00;;;;;;;13.95;7.75;;;;;;;10.09;100.00;98789.41;4423119;32;20050;-71
2022/09/24 05:25:26;;;;;;;12.80;7.80;;;;;;;9.91;100.00;98784.38;4427490;32;20049;-69
2022/09/24 05:27:54;;;;;;;13.07;7.53;;;;;;;10.07;100.00;98834.56;4429971;32;20026;-70
2022/09/24 05:30:23;;;;;;;12.27;7.45;;;;;;;9.78;100.00;98798.97;4428820;32;20034;-69
2022/09/24 05:32:52;;;;;;;13.40;7.80;;;;;;;10.16;100.00;98841.16;4425823;32;20037;-73
2022/09/24 05:35:21;;;;;;;15.25;8.52;;;;;;;10.00;100.00;98790.91;4428779;32;20096;-68
2022/09/24 05:37:48;;;;;;;13.38;7.72;;;;;;;10.34;100.00;98841.91;4429442;32;20099;-69
2022/09/24 05:43:00;;;;;;;15.90;8.05;;;;;;;9.86;100.00;98793.19;4421533;32;20101;-68
2022/09/24 05:45:28;;;;;;;20.98;8.32;;;;;;;10.24;100.00;98822.91;4421601;32;20027;-68
2022/09/24 05:47:54;;;;;;;17.87;8.88;;;;;;;10.10;100.00;98791.03;4430729;32;20092;-68
2022/09/24 05:50:21;;;;;;;13.95;7.62;;;;;;;10.33;100.00;98826.81;4431502;32;20440;-69
2022/09/24 05:52:48;;;;;;;24.17;7.43;;;;;;;9.83;100.00;98774.84;4429685;32;20073;-70
2022/09/24 05:55:14;;;;;;;10.68;7.93;;;;;;;10.14;100.00;98819.03;4421284;32;20053;-68
2022/09/24 05:57:41;;;;;;;17.75;8.98;;;;;;;10.08;100.00;98820.03;4431596;32;20039;-68
2022/09/24 06:00:07;;;;;;;12.00;7.28;;;;;;;10.21;100.00;98823.41;4430556;32;20499;-68
2022/09/24 06:02:38;;;;;;;20.10;8.02;;;;;;;10.20;100.00;98800.28;4428888;32;20038;-73
2022/09/24 06:05:05;;;;;;;12.07;7.93;;;;;;;10.48;100.00;98845.81;4430813;32;20811;-68
2022/09/24 06:07:31;;;;;;;16.15;8.27;;;;;;;10.69;100.00;98844.16;4419985;32;20026;-68
2022/09/24 06:09:59;;;;;;;20.88;8.27;;;;;;;10.56;100.00;98831.06;4407985;32;20077;-68
2022/09/24 06:12:26;;;;;;;14.95;8.13;;;;;;;10.63;100.00;98847.84;4405841;32;20438;-68
2022/09/24 06:14:52;;;;;;;11.60;7.75;;;;;;;10.57;100.00;98850.75;4403088;32;20022;-72
2022/09/24 06:17:19;;;;;;;16.85;8.48;;;;;;;10.76;100.00;98845.81;4410279;32;20035;-68
2022/09/24 06:19:46;;;;;;;13.00;7.70;;;;;;;10.84;100.00;98848.03;4429103;32;20034;-69
2022/09/24 06:22:13;;;;;;;15.30;7.25;;;;;;;10.81;100.00;98838.59;4413666;32;20052;-69
2022/09/24 06:24:39;;;;;;;12.18;7.68;;;;;;;10.55;100.00;98797.16;4413738;32;20038;-69
2022/09/24 06:27:06;;;;;;;14.68;9.40;;;;;;;10.83;100.00;98828.38;4406461;32;20046;-72
2022/09/24 06:29:32;;;;;;;13.90;7.05;;;;;;;10.51;100.00;98759.19;4406562;32;20305;-68
2022/09/24 06:32:00;;;;;;;23.33;8.88;;;;;;;11.01;100.00;98837.13;4408651;32;20035;-69
2022/09/24 06:34:28;;;;;;;14.87;9.07;;;;;;;10.96;100.00;98834.41;4408425;32;20219;-69
2022/09/24 06:36:55;;;;;;;15.10;8.60;;;;;;;10.37;100.00;98723.00;4392120;32;20419;-69
2022/09/24 06:39:23;;;;;;;20.33;9.82;;;;;;;10.98;100.00;98837.66;4384235;32;20043;-72
2022/09/24 06:41:50;;;;;;;16.77;8.98;;;;;;;10.95;100.00;98832.78;4367580;32;20043;-69
2022/09/24 06:44:18;;;;;;;16.50;8.77;;;;;;;10.88;100.00;98828.44;4382752;32;20392;-69
2022/09/24 06:46:44;;;;;;;22.52;10.30;;;;;;;10.72;100.00;98791.63;4380197;32;20043;-69
2022/09/24 06:49:11;;;;;;;15.73;9.27;;;;;;;10.98;100.00;98826.91;4366367;32;20174;-68
2022/09/24 06:51:38;;;;;;;39.20;9.15;;;;;;;11.16;100.00;98839.16;4363335;32;20049;-67
2022/09/24 06:54:04;;;;;;;28.60;9.77;;;;;;;11.30;100.00;98837.63;4360212;32;20051;-69
2022/09/24 06:56:31;;;;;;;19.10;9.25;;;;;;;11.20;100.00;98834.84;4365558;32;20046;-68
2022/09/24 06:58:57;;;;;;;18.75;9.13;;;;;;;11.08;100.00;98800.81;4367026;32;20067;-67
2022/09/24 07:01:23;;;;;;;19.70;9.18;;;;;;;11.33;100.00;98820.94;4366316;32;20192;-67
2022/09/24 07:03:50;;;;;;;14.30;8.90;;;;;;;11.40;100.00;98839.59;4392792;32;20060;-69
2022/09/24 07:06:16;;;;;;;13.93;7.87;;;;;;;11.49;100.00;98816.47;4381002;32;20055;-70
2022/09/24 07:08:42;;;;;;;16.20;8.98;;;;;;;11.59;100.00;98838.09;4393523;32;20073;-69
2022/09/24 07:11:12;;;;;;;14.27;8.50;;;;;;;11.62;100.00;98837.56;4393555;32;20622;-69
2022/09/24 07:13:38;;;;;;;14.98;8.50;;;;;;;11.54;100.00;98837.25;4396439;32;20078;-71
2022/09/24 07:16:05;;;;;;;13.77;7.45;;;;;;;11.30;100.00;98799.09;4394557;32;20380;-68
2022/09/24 07:18:31;;;;;;;17.12;7.93;;;;;;;11.52;100.00;98798.94;4396900;32;20072;-67
2022/09/24 07:20:58;;;;;;;13.38;7.75;;;;;;;11.57;100.00;98801.69;4381906;32;20102;-67
2022/09/24 07:23:25;;;;;;;24.63;8.23;;;;;;;11.53;100.00;98793.28;4381132;32;20035;-67
2022/09/24 07:25:55;;;;;;;15.95;7.30;;;;;;;11.79;100.00;98841.94;4380456;32;20038;-72
2022/09/24 07:28:21;;;;;;;12.55;6.87;;;;;;;11.73;100.00;98840.31;4382670;32;20047;-67
2022/09/24 07:30:55;;;;;;;14.50;6.15;;;;;;;11.55;100.00;98803.81;4352018;33;20024;-67
2022/09/24 07:33:21;;;;;;;13.73;7.37;;;;;;;11.65;100.00;98841.63;4352186;32;20077;-69
2022/09/24 07:35:47;;;;;;;10.57;5.72;;;;;;;11.67;100.00;98850.25;4333106;33;20079;-71
2022/09/24 07:38:15;;;;;;;12.32;5.72;;;;;;;11.42;100.00;98805.09;4359066;32;20066;-68
2022/09/24 07:40:43;;;;;;;9.95;6.05;;;;;;;11.72;100.00;98817.13;4360546;32;20043;-69
2022/09/24 07:43:12;;;;;;;11.65;6.03;;;;;;;11.95;100.00;98814.03;4365386;32;20031;-69
2022/09/24 07:45:40;;;;;;;11.38;5.93;;;;;;;12.33;100.00;98868.69;4365419;32;20354;-73
2022/09/24 07:48:09;;;;;;;19.95;6.05;;;;;;;12.33;100.00;98863.28;4348394;32;20052;-68
2022/09/24 07:50:38;;;;;;;12.00;5.95;;;;;;;12.33;100.00;98857.87;4350787;32;20056;-72
2022/09/24 07:53:05;;;;;;;14.32;6.65;;;;;;;12.15;100.00;98866.44;4320717;33;20056;-70
2022/09/24 07:55:38;;;;;;;10.40;5.03;;;;;;;12.28;100.00;98855.13;4305339;33;20474;-69
2022/09/24 07:58:04;;;;;;;11.57;5.40;;;;;;;12.39;100.00;98866.78;4305810;33;20045;-69
2022/09/24 08:00:30;;;;;;;9.82;5.72;;;;;;;12.57;100.00;98868.19;4306075;33;20489;-69
2022/09/24 08:02:57;;;;;;;7.85;5.18;;;;;;;12.42;100.00;98827.66;4335520;33;20428;-68
2022/09/24 08:05:23;;;;;;;9.75;5.28;;;;;;;12.27;100.00;98826.53;4348418;33;20032;-71
2022/09/24 08:07:52;;;;;;;8.45;5.00;;;;;;;12.50;100.00;98824.44;4366148;32;20024;-71
2022/09/24 08:10:18;;;;;;;11.23;5.07;;;;;;;12.90;100.00;98871.50;4372099;32;20445;-69
2022/09/24 08:12:44;;;;;;;7.25;5.10;;;;;;;12.68;100.00;98815.00;4353280;32;20089;-68
2022/09/24 08:15:11;;;;;;;8.82;4.95;;;;;;;13.07;100.00;98866.63;4350824;32;20078;-69
2022/09/24 08:17:37;;;;;;;8.55;4.82;;;;;;;13.16;100.00;98857.97;4349643;32;20084;-73
2022/09/24 08:20:04;;;;;;;12.73;5.30;;;;;;;12.70;100.00;98813.66;4335650;33;20231;-68
2022/09/24 08:22:30;;;;;;;8.77;5.10;;;;;;;12.86;100.00;98854.19;4334655;33;20175;-69
2022/09/24 08:24:57;;;;;;;6.65;5.53;;;;;;;12.34;100.00;98773.09;4337785;33;20271;-70
2022/09/24 08:27:24;;;;;;;8.52;5.05;;;;;;;12.42;100.00;98774.47;4362496;32;20100;-71
2022/09/24 08:29:51;;;;;;;11.48;6.30;;;;;;;13.09;100.00;98856.34;4363291;32;20057;-72
2022/09/24 08:32:17;;;;;;;8.93;5.22;;;;;;;13.13;100.00;98855.81;4362513;32;20043;-71
2022/09/24 08:34:44;;;;;;;19.95;5.53;;;;;;;12.98;100.00;98827.72;4365394;32;20069;-69
2022/09/24 08:37:12;;;;;;;10.35;5.03;;;;;;;13.16;100.00;98820.13;4381133;32;20102;-69
2022/09/24 08:39:39;;;;;;;9.32;4.62;;;;;;;12.94;100.00;98834.75;4385681;32;20130;-69
2022/09/24 08:42:10;;;;;;;9.25;5.00;;;;;;;13.46;100.00;98861.78;4394235;32;20049;-70
2022/09/24 08:47:41;;;;;;;8.77;4.82;;;;;;;13.50;100.00;98827.69;4413736;32;20066;-70
2022/09/24 08:53:37;;;;;;;10.93;5.30;;;;;;;13.54;100.00;98820.66;4429590;32;20340;-69
2022/09/24 08:56:05;;;;;;;8.35;5.32;;;;;;;13.88;100.00;98857.87;4412260;32;20034;-69
2022/09/24 08:58:43;;;;;;;8.93;5.68;;;;;;;13.79;100.00;98823.28;4430184;32;20462;-74
2022/09/24 09:01:09;;;;;;;9.65;5.10;;;;;;;13.67;100.00;98835.50;4409064;32;20227;-70
2022/09/24 09:03:46;;;;;;;20.62;5.12;;;;;;;13.75;100.00;98868.22;4413051;32;20034;-70
2022/09/24 09:06:39;;;;;;;12.95;6.47;;;;;;;13.16;100.00;98755.25;4414658;32;20466;-71
2022/09/24 09:09:53;;;;;;;9.85;5.30;;;;;;;13.86;100.00;98860.06;4414476;32;20068;-70
2022/09/24 09:12:25;;;;;;;12.07;6.40;;;;;;;13.93;100.00;98855.19;4368537;32;20085;-70
2022/09/24 09:15:19;;;;;;;10.48;6.57;;;;;;;13.86;100.00;98862.78;4367727;32;20481;-70
2022/09/24 09:18:00;;;;;;;11.65;6.47;;;;;;;13.83;100.00;98861.41;4367649;32;20347;-69
2022/09/24 09:20:38;;;;;;;8.55;5.32;;;;;;;14.10;100.00;98861.06;4368904;32;20076;-69
2022/09/24 09:23:21;;;;;;;13.32;6.07;;;;;;;13.94;100.00;98811.59;4363122;32;20039;-69
2022/09/24 09:25:54;;;;;;;8.38;5.32;;;;;;;13.77;100.00;98841.69;4368023;32;20097;-69
2022/09/24 09:28:21;;;;;;;11.15;5.50;;;;;;;13.55;100.00;98817.69;4367760;32;20019;-75
2022/09/24 09:30:59;;;;;;;7.15;4.75;;;;;;;13.26;100.00;98801.22;4365939;32;20059;-70
2022/09/24 09:33:45;;;;;;;11.50;5.57;;;;;;;13.49;100.00;98817.97;4339702;32;20091;-70
2022/09/24 09:36:44;;;;;;;11.05;5.50;;;;;;;13.98;100.00;98852.47;4344448;32;20044;-74
2022/09/24 09:39:28;;;;;;;9.07;6.62;;;;;;;14.33;100.00;98843.37;4348699;33;20384;-70
2022/09/24 09:41:58;;;;;;;8.98;5.50;;;;;;;14.01;100.00;98846.50;4353472;32;20039;-70
2022/09/24 09:44:29;;;;;;;12.73;5.15;;;;;;;14.03;100.00;98811.84;4413005;32;20108;-73
2022/09/24 09:47:15;;;;;;;10.45;6.53;;;;;;;14.10;100.00;98842.09;4411044;32;20140;-71
2022/09/24 09:49:46;;;;;;;13.10;5.95;;;;;;;14.09;100.00;98810.72;4421381;32;20487;-70
2022/09/24 09:52:20;;;;;;;11.00;6.20;;;;;;;14.52;100.00;98824.56;4421636;32;20052;-71
2022/09/24 09:54:47;;;;;;;13.88;6.03;;;;;;;14.21;100.00;98804.16;4407720;32;20443;-68
2022/09/24 09:57:19;;;;;;;8.40;5.10;;;;;;;13.73;100.00;98729.69;4404524;32;20038;-70
2022/09/24 09:59:48;;;;;;;6.62;5.55;;;;;;;14.82;100.00;98839.03;4394048;32;20042;-70
2022/09/24 10:02:23;;;;;;;12.10;5.93;;;;;;;14.72;100.00;98809.28;4389594;32;20170;-69
2022/09/24 10:04:56;;;;;;;11.98;6.05;;;;;;;15.19;100.00;98810.53;4389611;32;20031;-70
2022/09/24 10:07:23;;;;;;;12.45;6.40;;;;;;;15.21;100.00;98850.94;4389383;32;20043;-69
2022/09/24 10:10:12;;;;;;;11.75;6.70;;;;;;;15.55;100.00;98834.59;4390166;32;20065;-69
2022/09/24 10:12:38;;;;;;;15.85;5.97;;;;;;;14.82;100.00;98801.09;4390936;32;20085;-71
2022/09/24 10:15:25;;;;;;;10.02;5.78;;;;;;;15.15;100.00;98809.47;4395249;32;20387;-69
2022/09/24 10:17:54;;;;;;;10.38;6.32;;;;;;;14.98;100.00;98841.63;4395796;32;20051;-69
2022/09/24 10:20:22;;;;;;;10.75;5.65;;;;;;;15.10;100.00;98844.78;4395871;32;20034;-72
2022/09/24 10:23:13;;;;;;;11.18;7.07;;;;;;;14.78;100.00;98800.03;4398046;32;20108;-70
2022/09/24 10:25:49;;;;;;;13.97;6.73;;;;;;;14.30;100.00;98805.22;4364268;32;20463;-71
2022/09/24 10:31:11;;;;;;;8.07;5.68;;;;;;;14.72;100.00;98820.13;4366403;32;20042;-70
2022/09/24 10:33:43;;;;;;;12.07;6.28;;;;;;;15.11;100.00;98835.56;4394015;32;20018;-70
2022/09/24 10:36:18;;;;;;;8.80;5.95;;;;;;;14.91;100.00;98830.31;4365065;32;20067;-71
2022/09/24 10:39:06;;;;;;;9.10;6.87;;;;;;;14.40;100.00;98778.03;4377637;32;20422;-70
2022/09/24 10:41:34;;;;;;;9.80;6.20;;;;;;;15.46;100.00;98825.47;4376669;32;20055;-71
2022/09/24 10:44:05;;;;;;;10.90;6.07;;;;;;;15.19;100.00;98783.41;4380542;32;20073;-70
2022/09/24 10:47:03;;;;;;;12.90;6.53;;;;;;;15.61;100.00;98822.59;4378763;32;20052;-71
2022/09/24 10:49:58;;;;;;;12.65;5.55;;;;;;;15.80;100.00;98825.41;4380009;32;20038;-71
2022/09/24 10:52:44;;;;;;;16.95;6.10;;;;;;;16.11;100.00;98786.19;4378879;32;20522;-73
2022/09/24 10:55:40;;;;;;;13.73;6.87;;;;;;;16.00;100.00;98823.53;4380817;32;20039;-69
2022/09/24 10:58:54;;;;;;;14.80;6.80;;;;;;;16.13;100.00;98824.72;4376028;32;20041;-70
2022/09/24 11:01:58;;;;;;;7.05;5.30;;;;;;;16.82;100.00;98810.72;4369182;32;20170;-70
2022/09/24 11:04:42;;;;;;;11.02;6.30;;;;;;;16.77;100.00;98813.50;4383674;32;20031;-70
2022/09/24 11:07:28;;;;;;;8.68;5.05;;;;;;;17.27;100.00;98815.72;4385205;32;20200;-70
2022/09/24 11:10:08;;;;;;;8.50;4.85;;;;;;;17.77;98.37;98813.97;4367442;32;20448;-70
2022/09/24 11:12:51;;;;;;;7.35;5.05;;;;;;;17.01;98.66;98780.81;4337416;32;20439;-70
2022/09/24 11:15:29;;;;;;;15.75;4.60;;;;;;;16.86;100.00;98812.59;4365974;32;20344;-72
2022/09/24 11:18:05;;;;;;;6.57;3.90;;;;;;;17.29;100.00;98784.38;4348061;33;20036;-69
2022/09/24 11:20:36;;;;;;;8.95;4.75;;;;;;;15.78;100.00;98815.94;4348477;33;20035;-68
2022/09/24 11:23:45;;;;;;;8.80;5.18;;;;;;;16.67;100.00;98799.00;4349952;32;20069;-68
2022/09/24 11:26:33;;;;;;;11.38;5.15;;;;;;;16.83;100.00;98801.44;4325072;33;20182;-66
2022/09/24 11:29:28;;;;;;;10.18;5.57;;;;;;;16.42;100.00;98802.06;4320827;33;20060;-67
2022/09/24 11:32:19;;;;;;;13.50;5.20;;;;;;;16.53;100.00;98800.84;4307569;33;20028;-67
2022/09/24 11:35:02;;;;;;;5.07;3.40;;;;;;;16.53;100.00;98792.69;4294039;33;20092;-69
2022/09/24 11:37:43;;;;;;;6.68;4.00;;;;;;;15.88;96.63;98788.66;4293587;33;20063;-67
2022/09/24 11:40:17;;;;;;;3.15;2.85;;;;;;;15.59;95.30;98746.09;4296122;33;20085;-67
2022/09/24 11:43:01;;;;;;;4.10;3.30;;;;;;;16.32;92.17;98792.97;4324962;32;20513;-67
2022/09/24 11:45:43;;;;;;;10.75;3.90;;;;;;;16.42;82.69;98796.63;4368516;32;20118;-67
2022/09/24 11:48:22;;;;;;;5.62;3.42;;;;;;;15.66;81.37;98799.22;4371984;32;20040;-67
2022/09/24 11:51:10;;;;;;;5.93;3.28;;;;;;;15.74;80.26;98804.00;4384582;32;20085;-66
2022/09/24 11:53:54;;;;;;;4.50;3.47;;;;;;;16.05;86.67;98796.34;4379106;32;20854;-67
2022/09/24 11:56:29;;;;;;;8.93;4.37;;;;;;;14.80;94.24;98754.47;4388273;32;20051;-67
2022/09/24 11:59:12;;;;;;;9.25;4.65;;;;;;;15.10;94.34;98768.84;4412025;32;20018;-67
2022/09/24 12:01:49;;;;;;;4.40;3.67;;;;;;;15.51;96.77;98795.56;4414602;32;20467;-67